Time;durP1;ratioP1;P1;durP2;ratioP2;P2;SDS_P1;SDS_P2;PMS_P1;PMS_P2;Temp;Humidity;BMP_temperature;BMP_pressure;BME280_temperature;BME280_humidity;BME280_pressure;Samples;Min_cycle;Max_cycle;Signal;HPM_P1;HPM_P2
2023/06/19 00:00:53;;;;;;;;;;;21.30;99.90;;;;;;5155719;27;20442;-50
2023/06/19 00:03:18;;;;;;;;;;;21.30;99.90;;;;;;5120440;27;19925;-50
2023/06/19 00:05:44;;;;;;;;;;;21.30;99.90;;;;;;5155751;27;19923;-47
2023/06/19 00:08:09;;;;;;;;;;;21.30;99.90;;;;;;5120584;27;19962;-50
2023/06/19 00:10:35;;;;;;;;;;;21.30;99.90;;;;;;5155794;27;20361;-51
2023/06/19 00:13:00;;;;;;;;;;;21.30;99.90;;;;;;5155795;27;20414;-51
2023/06/19 00:15:29;;;;;;;;;;;21.30;99.90;;;;;;5155793;27;19979;-48
2023/06/19 00:17:55;;;;;;;;;;;21.30;99.90;;;;;;5155524;27;20377;-49
2023/06/19 00:20:21;;;;;;;;;;;21.30;99.90;;;;;;5155409;27;19926;-51
2023/06/19 00:22:51;;;;;;;;;;;21.40;99.90;;;;;;5159287;27;19919;-48
2023/06/19 00:25:20;;;;;;;;;;;21.30;99.90;;;;;;5160341;27;20262;-50
2023/06/19 00:27:46;;;;;;;;;;;21.30;99.90;;;;;;5159908;27;20009;-49
2023/06/19 00:30:12;;;;;;;;;;;21.40;99.90;;;;;;5159865;27;19923;-48
2023/06/19 00:32:46;;;;;;;;;;;21.30;99.90;;;;;;5159713;27;20014;-49
2023/06/19 00:35:13;;;;;;;;;;;21.30;99.90;;;;;;5160249;27;19929;-48
2023/06/19 00:37:38;;;;;;;;;;;21.30;99.90;;;;;;5141633;27;20344;-48
2023/06/19 00:40:04;;;;;;;;;;;21.30;99.90;;;;;;5141574;27;20009;-48
2023/06/19 00:42:30;;;;;;;;;;;21.30;99.90;;;;;;5159590;27;19958;-49
2023/06/19 00:44:55;;;;;;;;;;;21.30;99.90;;;;;;5141444;27;19954;-49
2023/06/19 00:47:21;;;;;;;;;;;21.20;99.90;;;;;;5159335;27;19919;-48
2023/06/19 00:49:46;;;;;;;;;;;21.20;99.90;;;;;;5159606;27;19919;-49
2023/06/19 00:52:12;;;;;;;;;;;21.20;99.90;;;;;;5159514;27;19942;-48
2023/06/19 00:54:37;;;;;;;;;;;21.20;99.90;;;;;;5124250;27;19922;-49
2023/06/19 00:57:03;;;;;;;;;;;21.30;99.90;;;;;;5159399;27;20358;-48
2023/06/19 00:59:29;;;;;;;;;;;21.20;99.90;;;;;;5141085;27;20017;-48
2023/06/19 01:01:56;;;;;;;;;;;21.20;99.90;;;;;;5159220;27;19919;-47
2023/06/19 01:04:22;;;;;;;;;;;21.20;99.90;;;;;;5159309;27;19944;-47
2023/06/19 01:06:59;;;;;;;;;;;21.20;99.90;;;;;;5159252;27;19919;-48
2023/06/19 01:09:30;;;;;;;;;;;21.20;99.90;;;;;;5159038;27;20358;-48
2023/06/19 01:11:58;;;;;;;;;;;21.20;99.90;;;;;;5159007;27;19919;-47
2023/06/19 01:14:26;;;;;;;;;;;21.20;99.90;;;;;;5158970;27;19923;-48
2023/06/19 01:16:51;;;;;;;;;;;21.20;99.90;;;;;;5140826;27;19926;-48
2023/06/19 01:19:21;;;;;;;;;;;21.20;99.90;;;;;;5158874;27;19919;-50
2023/06/19 01:21:46;;;;;;;;;;;21.20;99.90;;;;;;5158818;27;19963;-48
2023/06/19 01:24:12;;;;;;;;;;;21.20;99.90;;;;;;5140657;27;20389;-47
2023/06/19 01:26:38;;;;;;;;;;;21.20;99.90;;;;;;5158775;27;19919;-47
2023/06/19 01:29:04;;;;;;;;;;;21.20;99.90;;;;;;5158625;27;20419;-47
2023/06/19 01:31:53;;;;;;;;;;;21.20;99.90;;;;;;5158777;27;19919;-47
2023/06/19 01:34:19;;;;;;;;;;;21.20;99.90;;;;;;5129352;27;19919;-47
2023/06/19 01:36:46;;;;;;;;;;;21.20;99.90;;;;;;5140506;27;19925;-49
2023/06/19 01:39:12;;;;;;;;;;;21.20;99.90;;;;;;5158334;27;19918;-47
2023/06/19 01:41:38;;;;;;;;;;;21.20;99.90;;;;;;5158375;27;19926;-48
2023/06/19 01:44:05;;;;;;;;;;;21.20;99.90;;;;;;5140087;27;19923;-47
2023/06/19 01:46:31;;;;;;;;;;;21.20;99.90;;;;;;5158376;27;19919;-47
2023/06/19 01:48:56;;;;;;;;;;;21.20;99.90;;;;;;5158400;27;19919;-47
2023/06/19 01:51:22;;;;;;;;;;;21.20;99.90;;;;;;5123167;27;20282;-47
2023/06/19 01:53:47;;;;;;;;;;;21.20;99.90;;;;;;5139926;27;19963;-46
2023/06/19 01:56:13;;;;;;;;;;;21.10;99.90;;;;;;5157983;27;19961;-48
2023/06/19 01:58:38;;;;;;;;;;;21.20;99.90;;;;;;5158648;27;20370;-47
2023/06/19 02:01:04;;;;;;;;;;;21.20;99.90;;;;;;5158131;27;19952;-47
2023/06/19 02:03:29;;;;;;;;;;;21.10;99.90;;;;;;5139856;27;19919;-48
2023/06/19 02:05:55;;;;;;;;;;;21.10;99.90;;;;;;5158110;27;19919;-47
2023/06/19 02:08:20;;;;;;;;;;;21.00;99.90;;;;;;5157773;27;19919;-47
2023/06/19 02:10:46;;;;;;;;;;;21.00;99.90;;;;;;5157732;27;19926;-46
2023/06/19 02:13:11;;;;;;;;;;;21.00;99.90;;;;;;5139769;27;19948;-47
2023/06/19 02:15:38;;;;;;;;;;;21.00;99.90;;;;;;5158010;27;20326;-47
2023/06/19 02:18:04;;;;;;;;;;;21.00;99.90;;;;;;5157753;27;19961;-48
2023/06/19 02:20:29;;;;;;;;;;;21.00;99.90;;;;;;5139470;27;19969;-48
2023/06/19 02:22:55;;;;;;;;;;;20.90;99.90;;;;;;5139568;27;19971;-47
2023/06/19 02:25:20;;;;;;;;;;;20.90;99.90;;;;;;5157661;27;19971;-47
2023/06/19 02:27:46;;;;;;;;;;;20.90;99.90;;;;;;5157660;27;20293;-47
2023/06/19 02:30:11;;;;;;;;;;;20.90;99.90;;;;;;5157624;27;20297;-46
2023/06/19 02:32:37;;;;;;;;;;;20.90;99.90;;;;;;5157586;27;19925;-47
2023/06/19 02:35:08;;;;;;;;;;;20.90;99.90;;;;;;5157435;27;19971;-47
2023/06/19 02:37:35;;;;;;;;;;;20.90;99.90;;;;;;5157460;27;19973;-47
2023/06/19 02:40:03;;;;;;;;;;;20.80;99.90;;;;;;5157286;27;19919;-47
2023/06/19 02:42:28;;;;;;;;;;;20.80;99.90;;;;;;5139033;27;19972;-47
2023/06/19 02:44:54;;;;;;;;;;;20.80;99.90;;;;;;5156658;27;20273;-47
2023/06/19 02:47:20;;;;;;;;;;;20.80;99.90;;;;;;5157383;27;19962;-47
2023/06/19 02:49:45;;;;;;;;;;;20.80;99.90;;;;;;5157127;27;20005;-47
2023/06/19 02:52:11;;;;;;;;;;;20.80;99.90;;;;;;5157213;27;20366;-47
2023/06/19 02:54:36;;;;;;;;;;;20.80;99.90;;;;;;5156929;27;19919;-47
2023/06/19 02:57:02;;;;;;;;;;;20.80;99.90;;;;;;5157163;27;19974;-48
2023/06/19 02:59:28;;;;;;;;;;;20.80;99.90;;;;;;5138752;27;20022;-47
2023/06/19 03:01:53;;;;;;;;;;;20.80;99.90;;;;;;5156944;27;19919;-47
2023/06/19 03:04:19;;;;;;;;;;;20.90;99.90;;;;;;5156907;27;20279;-47
2023/06/19 03:06:44;;;;;;;;;;;20.90;99.90;;;;;;5156807;27;20298;-47
2023/06/19 03:09:13;;;;;;;;;;;20.90;99.90;;;;;;5156706;27;19942;-47
2023/06/19 03:11:41;;;;;;;;;;;20.90;99.90;;;;;;5156833;27;19919;-47
2023/06/19 03:14:07;;;;;;;;;;;20.90;99.90;;;;;;5138562;27;19919;-47
2023/06/19 03:16:34;;;;;;;;;;;20.90;99.90;;;;;;5156745;27;19919;-47
2023/06/19 03:18:59;;;;;;;;;;;20.80;99.90;;;;;;5156636;27;19941;-47
2023/06/19 03:21:25;;;;;;;;;;;20.80;99.90;;;;;;5156453;27;20361;-47
2023/06/19 03:23:51;;;;;;;;;;;20.90;99.90;;;;;;5156524;27;19919;-47
2023/06/19 03:26:18;;;;;;;;;;;20.80;99.90;;;;;;5156997;27;19918;-47
2023/06/19 03:28:44;;;;;;;;;;;20.80;99.90;;;;;;5156504;27;20013;-47
2023/06/19 03:31:09;;;;;;;;;;;20.80;99.90;;;;;;5156343;27;20006;-47
2023/06/19 03:33:35;;;;;;;;;;;20.80;99.90;;;;;;5156324;27;19919;-47
2023/06/19 03:36:00;;;;;;;;;;;20.80;99.90;;;;;;5138105;27;19919;-46
2023/06/19 03:38:26;;;;;;;;;;;20.80;99.90;;;;;;5156206;27;19919;-47
2023/06/19 03:40:51;;;;;;;;;;;20.80;99.90;;;;;;5156201;27;19923;-47
2023/06/19 03:43:17;;;;;;;;;;;20.80;99.90;;;;;;5156095;27;19919;-47
2023/06/19 03:45:42;;;;;;;;;;;20.80;99.90;;;;;;5156149;27;20250;-47
2023/06/19 03:48:08;;;;;;;;;;;20.80;99.90;;;;;;5156112;27;19919;-47
2023/06/19 03:50:34;;;;;;;;;;;20.80;99.90;;;;;;5156112;27;20286;-47
2023/06/19 03:52:59;;;;;;;;;;;20.80;99.90;;;;;;5156076;27;20325;-47
2023/06/19 03:55:25;;;;;;;;;;;20.80;99.90;;;;;;5156074;27;19923;-46
2023/06/19 03:57:50;;;;;;;;;;;20.80;99.90;;;;;;5155982;27;19962;-47
2023/06/19 04:00:18;;;;;;;;;;;20.80;99.90;;;;;;5156143;27;19919;-47
2023/06/19 04:02:46;;;;;;;;;;;20.80;99.90;;;;;;5156326;27;19963;-47
2023/06/19 04:05:12;;;;;;;;;;;20.80;99.90;;;;;;5137400;27;20394;-47
2023/06/19 04:07:37;;;;;;;;;;;20.90;99.90;;;;;;5155840;27;19998;-47
2023/06/19 04:10:03;;;;;;;;;;;20.90;99.90;;;;;;5137784;27;19926;-47
2023/06/19 04:12:28;;;;;;;;;;;20.90;99.90;;;;;;5155836;27;19966;-47
2023/06/19 04:14:54;;;;;;;;;;;20.80;99.90;;;;;;5137577;27;19923;-48
2023/06/19 04:17:19;;;;;;;;;;;20.90;99.90;;;;;;5155913;27;19919;-47
2023/06/19 04:19:45;;;;;;;;;;;21.00;99.90;;;;;;5155521;27;19922;-47
2023/06/19 04:22:11;;;;;;;;;;;21.00;99.90;;;;;;5155550;27;19926;-48
2023/06/19 04:24:36;;;;;;;;;;;21.00;99.90;;;;;;5137566;27;19919;-47
2023/06/19 04:27:02;;;;;;;;;;;21.10;99.90;;;;;;5156025;27;19919;-47
2023/06/19 04:29:31;;;;;;;;;;;21.10;99.90;;;;;;5155567;27;20358;-47
2023/06/19 04:32:00;;;;;;;;;;;21.10;99.90;;;;;;5155543;27;19926;-47
2023/06/19 04:34:25;;;;;;;;;;;21.10;99.90;;;;;;5155512;27;20374;-47
2023/06/19 04:36:51;;;;;;;;;;;21.10;99.90;;;;;;5137093;27;19934;-46
2023/06/19 04:39:17;;;;;;;;;;;21.10;99.90;;;;;;5137139;27;19940;-46
2023/06/19 04:41:43;;;;;;;;;;;21.20;99.90;;;;;;5155986;27;19962;-46
2023/06/19 04:44:11;;;;;;;;;;;21.20;99.90;;;;;;5155624;27;19919;-46
2023/06/19 04:46:37;;;;;;;;;;;21.30;99.90;;;;;;5155590;27;19919;-46
2023/06/19 04:49:03;;;;;;;;;;;21.30;99.90;;;;;;5155352;27;20285;-49
2023/06/19 04:51:30;;;;;;;;;;;21.30;99.90;;;;;;5137102;27;19919;-47
2023/06/19 04:53:55;;;;;;;;;;;21.30;99.90;;;;;;5155436;27;19953;-48
2023/06/19 04:56:21;;;;;;;;;;;21.40;99.90;;;;;;5155453;27;19919;-48
2023/06/19 04:58:47;;;;;;;;;;;21.40;99.90;;;;;;5136675;27;19972;-46
2023/06/19 05:01:12;;;;;;;;;;;21.40;99.90;;;;;;5136812;27;19919;-46
2023/06/19 05:03:39;;;;;;;;;;;21.40;99.90;;;;;;5155377;27;19919;-47
2023/06/19 05:06:04;;;;;;;;;;;21.50;99.90;;;;;;5155028;27;20007;-46
2023/06/19 05:08:30;;;;;;;;;;;21.50;99.90;;;;;;5158636;27;19923;-47
2023/06/19 05:10:57;;;;;;;;;;;21.50;99.90;;;;;;5159206;27;20284;-46
2023/06/19 05:13:23;;;;;;;;;;;21.50;99.90;;;;;;5159168;27;19919;-46
2023/06/19 05:15:50;;;;;;;;;;;21.60;99.90;;;;;;5140880;27;19926;-47
2023/06/19 05:18:16;;;;;;;;;;;21.80;99.90;;;;;;5158978;27;19919;-46
2023/06/19 05:20:41;;;;;;;;;;;22.00;99.90;;;;;;5158712;27;19971;-53
2023/06/19 05:23:07;;;;;;;;;;;22.30;99.90;;;;;;5140734;27;19919;-45
2023/06/19 05:25:32;;;;;;;;;;;22.30;99.90;;;;;;5140790;27;19919;-46
2023/06/19 05:27:58;;;;;;;;;;;22.20;99.90;;;;;;5158865;27;20337;-46
2023/06/19 05:30:23;;;;;;;;;;;22.10;99.90;;;;;;5158806;27;19923;-47
2023/06/19 05:32:49;;;;;;;;;;;22.00;99.90;;;;;;5158853;27;19919;-48
2023/06/19 05:35:15;;;;;;;;;;;22.00;99.90;;;;;;5158426;27;20002;-47
2023/06/19 05:37:42;;;;;;;;;;;21.90;99.90;;;;;;5158734;27;19926;-47
2023/06/19 05:40:08;;;;;;;;;;;21.90;99.90;;;;;;5158749;27;20286;-47
2023/06/19 05:42:34;;;;;;;;;;;21.90;99.90;;;;;;5158233;27;19919;-47
2023/06/19 05:44:59;;;;;;;;;;;21.90;99.90;;;;;;5158340;27;19927;-47
2023/06/19 05:47:25;;;;;;;;;;;21.90;99.90;;;;;;5158390;27;19919;-46
2023/06/19 05:49:51;;;;;;;;;;;21.90;99.90;;;;;;5158200;27;20373;-46
2023/06/19 05:52:17;;;;;;;;;;;21.80;99.90;;;;;;5158668;27;20438;-47
2023/06/19 05:54:42;;;;;;;;;;;21.80;99.90;;;;;;5158360;27;20284;-48
2023/06/19 05:57:08;;;;;;;;;;;21.80;99.90;;;;;;5158490;27;20445;-47
2023/06/19 05:59:33;;;;;;;;;;;21.80;99.90;;;;;;5158100;27;19919;-47
2023/06/19 06:01:59;;;;;;;;;;;21.80;99.90;;;;;;5158296;27;19922;-47
2023/06/19 06:04:25;;;;;;;;;;;21.90;99.90;;;;;;5157920;27;19919;-46
2023/06/19 06:06:51;;;;;;;;;;;21.90;99.90;;;;;;5157883;27;19919;-46
2023/06/19 06:09:16;;;;;;;;;;;21.90;99.90;;;;;;5158047;27;20054;-47
2023/06/19 06:11:42;;;;;;;;;;;21.90;99.90;;;;;;5158070;27;19919;-47
2023/06/19 06:14:07;;;;;;;;;;;22.00;99.90;;;;;;5158021;27;19926;-46
2023/06/19 06:16:33;;;;;;;;;;;21.90;99.90;;;;;;5139452;27;19922;-47
2023/06/19 06:18:58;;;;;;;;;;;21.90;99.90;;;;;;5156419;27;19919;-47
2023/06/19 06:21:24;;;;;;;;;;;21.80;99.90;;;;;;5157748;27;19926;-46
2023/06/19 06:23:50;;;;;;;;;;;21.80;99.90;;;;;;5158025;27;19919;-47
2023/06/19 06:26:16;;;;;;;;;;;21.80;99.90;;;;;;5158091;27;19919;-49
2023/06/19 06:28:41;;;;;;;;;;;21.70;99.90;;;;;;5157556;27;20433;-47
2023/06/19 06:31:07;;;;;;;;;;;21.70;99.90;;;;;;5157356;27;19919;-47
2023/06/19 06:33:32;;;;;;;;;;;21.70;99.90;;;;;;5157523;27;19930;-47
2023/06/19 06:35:59;;;;;;;;;;;21.70;99.90;;;;;;5157748;27;20433;-48
2023/06/19 06:38:24;;;;;;;;;;;21.70;99.90;;;;;;5139017;27;19923;-46
2023/06/19 06:40:50;;;;;;;;;;;21.70;99.90;;;;;;5157320;27;19926;-47
2023/06/19 06:43:16;;;;;;;;;;;21.80;99.90;;;;;;5157070;27;19923;-48
2023/06/19 06:45:42;;;;;;;;;;;21.80;99.90;;;;;;5138732;27;19926;-48
2023/06/19 06:48:09;;;;;;;;;;;21.80;99.90;;;;;;5157198;27;19965;-48
2023/06/19 06:50:34;;;;;;;;;;;21.80;99.90;;;;;;5157290;27;19922;-45
2023/06/19 06:53:00;;;;;;;;;;;21.80;99.90;;;;;;5157240;27;19919;-47
2023/06/19 06:55:26;;;;;;;;;;;21.80;99.90;;;;;;5157180;27;19919;-52
2023/06/19 06:57:51;;;;;;;;;;;21.80;99.90;;;;;;5157021;27;19919;-47
2023/06/19 07:00:18;;;;;;;;;;;21.80;99.90;;;;;;5156963;27;19918;-48
2023/06/19 07:02:43;;;;;;;;;;;21.80;99.90;;;;;;5156749;27;20017;-47
2023/06/19 07:05:09;;;;;;;;;;;21.80;99.90;;;;;;5156996;27;19970;-46
2023/06/19 07:07:35;;;;;;;;;;;21.70;99.90;;;;;;5156951;27;19950;-47
2023/06/19 07:10:01;;;;;;;;;;;21.70;99.90;;;;;;5156848;27;19919;-47
2023/06/19 07:12:26;;;;;;;;;;;21.70;99.90;;;;;;5156819;27;19918;-49
2023/06/19 07:14:55;;;;;;;;;;;21.60;99.90;;;;;;5156651;27;19919;-47
2023/06/19 07:17:20;;;;;;;;;;;21.60;99.90;;;;;;5138423;27;19942;-46
2023/06/19 07:19:46;;;;;;;;;;;21.60;99.90;;;;;;5157263;27;19919;-46
2023/06/19 07:22:12;;;;;;;;;;;21.60;99.90;;;;;;5156671;27;20259;-47
2023/06/19 07:24:37;;;;;;;;;;;21.50;99.90;;;;;;5138440;27;19919;-47
2023/06/19 07:27:03;;;;;;;;;;;21.50;99.90;;;;;;5156478;27;19919;-47
2023/06/19 07:29:29;;;;;;;;;;;21.50;99.90;;;;;;5137835;27;19926;-46
2023/06/19 07:31:55;;;;;;;;;;;21.50;99.90;;;;;;5156086;27;19974;-47
2023/06/19 07:34:21;;;;;;;;;;;21.50;99.90;;;;;;5157121;27;20354;-46
2023/06/19 07:36:47;;;;;;;;;;;21.40;99.90;;;;;;5156678;27;19926;-46
2023/06/19 07:39:13;;;;;;;;;;;21.40;99.90;;;;;;5137963;27;19919;-47
2023/06/19 07:41:38;;;;;;;;;;;21.40;99.90;;;;;;5156253;27;19919;-45
2023/06/19 07:44:04;;;;;;;;;;;21.30;99.90;;;;;;5156035;27;19923;-46
2023/06/19 07:46:29;;;;;;;;;;;21.30;99.90;;;;;;5156075;27;19919;-46
2023/06/19 07:48:55;;;;;;;;;;;21.20;99.90;;;;;;5156619;27;19919;-47
2023/06/19 07:51:20;;;;;;;;;;;21.10;99.90;;;;;;5138390;27;20313;-46
2023/06/19 07:53:46;;;;;;;;;;;21.00;99.90;;;;;;5156059;27;20262;-47
2023/06/19 07:56:12;;;;;;;;;;;21.00;99.90;;;;;;5138084;27;20334;-47
2023/06/19 07:58:37;;;;;;;;;;;20.90;99.90;;;;;;5155907;27;19919;-47
2023/06/19 08:01:03;;;;;;;;;;;20.90;99.90;;;;;;5137367;27;19919;-47
2023/06/19 08:03:28;;;;;;;;;;;20.90;99.90;;;;;;5155985;27;19919;-46
2023/06/19 08:05:54;;;;;;;;;;;20.90;99.90;;;;;;5137759;27;19976;-46
2023/06/19 08:08:19;;;;;;;;;;;20.90;99.90;;;;;;5156170;27;20018;-46
2023/06/19 08:10:45;;;;;;;;;;;20.80;99.90;;;;;;5155926;27;19919;-46
2023/06/19 08:13:11;;;;;;;;;;;20.80;99.90;;;;;;5155823;27;19923;-47
2023/06/19 08:15:37;;;;;;;;;;;20.80;99.90;;;;;;5155564;27;19918;-47
2023/06/19 08:18:02;;;;;;;;;;;20.80;99.90;;;;;;5137664;27;19966;-47
2023/06/19 08:20:28;;;;;;;;;;;20.90;99.90;;;;;;5137620;27;19919;-46
2023/06/19 08:22:54;;;;;;;;;;;20.90;99.90;;;;;;5155762;27;20018;-46
2023/06/19 08:25:19;;;;;;;;;;;20.80;99.90;;;;;;5155576;27;19919;-47
2023/06/19 08:27:45;;;;;;;;;;;20.90;99.90;;;;;;5155490;27;19926;-47
2023/06/19 08:30:11;;;;;;;;;;;20.90;99.90;;;;;;5137099;27;19966;-46
2023/06/19 08:32:36;;;;;;;;;;;20.90;99.90;;;;;;5155491;27;19918;-47
2023/06/19 08:35:02;;;;;;;;;;;20.90;99.90;;;;;;5155950;27;19926;-47
2023/06/19 08:37:28;;;;;;;;;;;20.90;99.90;;;;;;5137616;27;19925;-47
2023/06/19 08:39:55;;;;;;;;;;;20.90;99.90;;;;;;5155376;27;19919;-47
2023/06/19 08:42:22;;;;;;;;;;;20.90;99.90;;;;;;5156238;27;19919;-46
2023/06/19 08:44:48;;;;;;;;;;;20.90;99.90;;;;;;5159626;27;20379;-46
2023/06/19 08:47:14;;;;;;;;;;;20.90;99.90;;;;;;5159742;27;19931;-53
2023/06/19 08:49:39;;;;;;;;;;;20.90;99.90;;;;;;5159628;27;19969;-47
2023/06/19 08:52:06;;;;;;;;;;;20.90;99.90;;;;;;5159593;27;20009;-48
2023/06/19 08:54:31;;;;;;;;;;;21.00;99.90;;;;;;5159602;27;20022;-48
2023/06/19 08:57:03;;;;;;;;;;;21.00;99.90;;;;;;5159376;27;19971;-48
2023/06/19 08:59:31;;;;;;;;;;;21.00;99.90;;;;;;5159212;27;19970;-48
2023/06/19 09:01:57;;;;;;;;;;;21.00;99.90;;;;;;5159494;27;19926;-50
2023/06/19 09:04:24;;;;;;;;;;;21.00;99.90;;;;;;5141162;27;19919;-52
2023/06/19 09:06:50;;;;;;;;;;;21.00;99.90;;;;;;5141159;27;19919;-50
2023/06/19 09:09:16;;;;;;;;;;;21.00;99.90;;;;;;5159220;27;19919;-47
2023/06/19 09:11:45;;;;;;;;;;;21.00;99.90;;;;;;5159075;27;20274;-48
2023/06/19 09:14:11;;;;;;;;;;;21.00;99.90;;;;;;5158916;27;19919;-46
2023/06/19 09:16:40;;;;;;;;;;;21.00;99.90;;;;;;5159160;27;19925;-49
2023/06/19 09:19:06;;;;;;;;;;;21.00;99.90;;;;;;5123857;27;19999;-50
2023/06/19 09:21:31;;;;;;;;;;;20.90;99.90;;;;;;5158963;27;19923;-49
2023/06/19 09:24:07;;;;;;;;;;;20.90;99.90;;;;;;5140567;27;19926;-48
2023/06/19 09:26:33;;;;;;;;;;;21.00;99.90;;;;;;5158770;27;19941;-50
2023/06/19 09:29:09;;;;;;;;;;;21.00;99.90;;;;;;5158702;27;19972;-47
2023/06/19 09:31:34;;;;;;;;;;;21.10;99.90;;;;;;5158937;27;19923;-48
2023/06/19 09:34:00;;;;;;;;;;;21.10;99.90;;;;;;5158758;27;19918;-49
2023/06/19 09:36:26;;;;;;;;;;;21.20;99.90;;;;;;5158499;27;19926;-49
2023/06/19 09:38:52;;;;;;;;;;;21.30;99.90;;;;;;5158789;27;19926;-50
2023/06/19 09:41:19;;;;;;;;;;;21.30;99.90;;;;;;5158556;27;20281;-48
2023/06/19 09:43:46;;;;;;;;;;;21.40;99.90;;;;;;5159278;27;19923;-50
2023/06/19 09:46:14;;;;;;;;;;;21.40;99.90;;;;;;5158881;27;19919;-47
2023/06/19 09:48:43;;;;;;;;;;;21.40;99.90;;;;;;5158472;27;19919;-50
2023/06/19 09:51:17;;;;;;;;;;;21.40;99.90;;;;;;5158538;27;19926;-48
2023/06/19 09:53:47;;;;;;;;;;;21.40;99.90;;;;;;5158268;27;19919;-48
2023/06/19 09:56:13;;;;;;;;;;;21.40;99.90;;;;;;5139904;27;20367;-46
2023/06/19 09:58:40;;;;;;;;;;;21.40;99.90;;;;;;5158350;27;19926;-46
2023/06/19 10:01:07;;;;;;;;;;;21.30;99.90;;;;;;5158491;27;19969;-47
2023/06/19 10:03:33;;;;;;;;;;;21.30;99.90;;;;;;5140134;27;19922;-47
2023/06/19 10:05:59;;;;;;;;;;;21.30;99.90;;;;;;5158094;27;20327;-47
2023/06/19 10:08:26;;;;;;;;;;;21.30;99.90;;;;;;5139759;27;19983;-47
2023/06/19 10:10:54;;;;;;;;;;;21.30;99.90;;;;;;5158118;27;20010;-46
2023/06/19 10:13:20;;;;;;;;;;;21.30;99.90;;;;;;5139884;27;19923;-49
2023/06/19 10:15:47;;;;;;;;;;;21.30;99.90;;;;;;5158085;27;19978;-47
2023/06/19 10:18:16;;;;;;;;;;;21.30;99.90;;;;;;5139537;27;19918;-47
2023/06/19 10:20:42;;;;;;;;;;;21.30;99.90;;;;;;5157718;27;19919;-49
2023/06/19 10:23:10;;;;;;;;;;;21.30;99.90;;;;;;5157771;27;19922;-47
2023/06/19 10:25:40;;;;;;;;;;;21.30;99.90;;;;;;5157844;27;19958;-48
2023/06/19 10:28:18;;;;;;;;;;;21.30;99.90;;;;;;5139526;27;19947;-48
2023/06/19 10:30:44;;;;;;;;;;;21.30;99.90;;;;;;5157546;27;19923;-47
2023/06/19 10:33:09;;;;;;;;;;;21.30;99.90;;;;;;5157492;27;19943;-47
2023/06/19 10:35:39;;;;;;;;;;;21.30;99.90;;;;;;5157447;27;19923;-47
2023/06/19 10:38:05;;;;;;;;;;;21.20;99.90;;;;;;5157937;27;19968;-47
2023/06/19 10:40:31;;;;;;;;;;;21.20;99.90;;;;;;5157548;27;19922;-48
2023/06/19 10:42:56;;;;;;;;;;;21.10;99.90;;;;;;5157354;27;19919;-47
2023/06/19 10:45:28;;;;;;;;;;;21.10;99.90;;;;;;5157183;27;19919;-47
2023/06/19 10:47:54;;;;;;;;;;;21.10;99.90;;;;;;5157196;27;19919;-47
2023/06/19 10:50:20;;;;;;;;;;;21.00;99.90;;;;;;5157073;27;19988;-47
2023/06/19 10:52:45;;;;;;;;;;;21.00;99.90;;;;;;5157291;27;20361;-47
2023/06/19 10:55:12;;;;;;;;;;;21.00;99.90;;;;;;5157203;27;19930;-48
2023/06/19 10:57:38;;;;;;;;;;;21.00;99.90;;;;;;5157183;27;19918;-47
2023/06/19 11:00:14;;;;;;;;;;;21.10;99.90;;;;;;5157060;27;19962;-46
2023/06/19 11:02:42;;;;;;;;;;;21.20;99.90;;;;;;5156788;27;19920;-48
2023/06/19 11:05:08;;;;;;;;;;;21.30;99.90;;;;;;5156683;27;19926;-46
2023/06/19 11:07:34;;;;;;;;;;;21.30;99.90;;;;;;5157006;27;19918;-46
2023/06/19 11:09:59;;;;;;;;;;;21.30;99.90;;;;;;5156759;27;19919;-48
2023/06/19 11:12:25;;;;;;;;;;;21.40;99.90;;;;;;5156938;27;19930;-45
2023/06/19 11:14:50;;;;;;;;;;;21.50;99.90;;;;;;5156882;27;19919;-47
2023/06/19 11:17:20;;;;;;;;;;;21.60;99.90;;;;;;5156493;27;20315;-47
2023/06/19 11:19:46;;;;;;;;;;;21.60;99.90;;;;;;5157034;27;19919;-47
2023/06/19 11:22:11;;;;;;;;;;;21.60;99.90;;;;;;5138311;27;20400;-47
2023/06/19 11:24:42;;;;;;;;;;;21.70;99.90;;;;;;5157005;27;19979;-46
2023/06/19 11:27:15;;;;;;;;;;;21.70;99.90;;;;;;5156373;27;20369;-47
2023/06/19 11:29:41;;;;;;;;;;;21.80;99.90;;;;;;5156404;27;19918;-47
2023/06/19 11:32:14;;;;;;;;;;;21.80;99.90;;;;;;5156251;27;19923;-47
2023/06/19 11:34:40;;;;;;;;;;;21.80;99.90;;;;;;5156374;27;20010;-47
2023/06/19 11:37:11;;;;;;;;;;;21.80;99.90;;;;;;5138213;27;19958;-48
2023/06/19 11:39:37;;;;;;;;;;;21.90;99.90;;;;;;5156225;27;19926;-48
2023/06/19 11:42:03;;;;;;;;;;;22.00;99.90;;;;;;5156122;27;20285;-48
2023/06/19 11:44:28;;;;;;;;;;;22.20;99.90;;;;;;5156273;27;20009;-47
2023/06/19 11:47:00;;;;;;;;;;;22.40;99.90;;;;;;5156027;27;20017;-47
2023/06/19 11:49:26;;;;;;;;;;;22.50;99.90;;;;;;5156276;27;20009;-47
2023/06/19 11:51:53;;;;;;;;;;;22.60;99.90;;;;;;5156353;27;19965;-46
2023/06/19 11:54:19;;;;;;;;;;;22.70;99.90;;;;;;5155985;27;19926;-46
2023/06/19 11:56:44;;;;;;;;;;;22.80;99.90;;;;;;5155947;27;20290;-46
2023/06/19 11:59:10;;;;;;;;;;;22.80;99.90;;;;;;5156058;27;19926;-47
2023/06/19 12:01:36;;;;;;;;;;;22.80;99.90;;;;;;5155907;27;19966;-47
2023/06/19 12:04:02;;;;;;;;;;;23.00;99.90;;;;;;5137876;27;19919;-47
2023/06/19 12:06:29;;;;;;;;;;;23.10;99.90;;;;;;5155895;27;19918;-47
2023/06/19 12:08:54;;;;;;;;;;;23.10;99.90;;;;;;5156015;27;20013;-46
2023/06/19 12:11:20;;;;;;;;;;;23.10;99.90;;;;;;5155712;27;20408;-47
2023/06/19 12:13:45;;;;;;;;;;;23.20;99.90;;;;;;5156024;27;19923;-47
2023/06/19 12:16:11;;;;;;;;;;;23.20;99.90;;;;;;5155572;27;19930;-50
2023/06/19 12:18:37;;;;;;;;;;;23.20;99.90;;;;;;5155246;27;19919;-48
2023/06/19 12:21:03;;;;;;;;;;;23.20;99.90;;;;;;5155559;27;19926;-47
2023/06/19 12:23:28;;;;;;;;;;;23.20;99.90;;;;;;5155715;27;20301;-47
2023/06/19 12:25:54;;;;;;;;;;;23.20;99.90;;;;;;5155504;27;19923;-48
2023/06/19 12:28:21;;;;;;;;;;;23.30;99.90;;;;;;5156182;27;19919;-47
2023/06/19 12:30:48;;;;;;;;;;;23.30;99.90;;;;;;5155451;27;20433;-48
2023/06/19 12:33:13;;;;;;;;;;;23.40;99.90;;;;;;5155959;27;20015;-48
2023/06/19 12:35:39;;;;;;;;;;;23.50;99.90;;;;;;5155600;27;19983;-47
2023/06/19 12:38:05;;;;;;;;;;;23.50;99.90;;;;;;5155619;27;19922;-47
2023/06/19 12:40:31;;;;;;;;;;;23.50;99.90;;;;;;5155386;27;19926;-47
2023/06/19 12:42:56;;;;;;;;;;;23.60;99.90;;;;;;5137350;27;19919;-49
2023/06/19 12:45:22;;;;;;;;;;;23.50;99.90;;;;;;5155509;27;19926;-47
2023/06/19 12:47:47;;;;;;;;;;;23.50;99.90;;;;;;5155915;27;20381;-47
2023/06/19 12:50:13;;;;;;;;;;;23.50;99.90;;;;;;5155365;27;19919;-48
2023/06/19 12:52:38;;;;;;;;;;;23.40;99.90;;;;;;5137338;27;19919;-46
2023/06/19 12:55:04;;;;;;;;;;;23.40;99.90;;;;;;5119981;27;19942;-47
2023/06/19 12:57:30;;;;;;;;;;;23.30;99.90;;;;;;5137072;27;20014;-47
2023/06/19 12:59:55;;;;;;;;;;;23.30;99.90;;;;;;5155437;27;20348;-47
2023/06/19 13:02:21;;;;;;;;;;;23.40;99.90;;;;;;5137014;27;19919;-47
2023/06/19 13:04:46;;;;;;;;;;;23.50;99.90;;;;;;5155288;27;19952;-47
2023/06/19 13:07:12;;;;;;;;;;;23.50;99.90;;;;;;5155430;27;19919;-47
2023/06/19 13:09:38;;;;;;;;;;;23.60;99.90;;;;;;5155267;27;19919;-48
2023/06/19 13:12:03;;;;;;;;;;;23.70;99.90;;;;;;5155260;27;19923;-48
2023/06/19 13:14:31;;;;;;;;;;;23.80;99.90;;;;;;5155256;27;19918;-48
2023/06/19 13:16:57;;;;;;;;;;;23.80;99.90;;;;;;5155561;27;20048;-47
2023/06/19 13:19:23;;;;;;;;;;;23.80;99.90;;;;;;5155370;27;19919;-47
2023/06/19 13:21:48;;;;;;;;;;;23.80;99.90;;;;;;5154931;27;20281;-47
2023/06/19 13:24:14;;;;;;;;;;;23.80;99.90;;;;;;5136835;27;19964;-48
2023/06/19 13:26:39;;;;;;;;;;;24.00;99.90;;;;;;5154961;27;20344;-47
2023/06/19 13:29:05;;;;;;;;;;;24.10;99.90;;;;;;5157394;27;19994;-47
2023/06/19 13:31:31;;;;;;;;;;;24.20;99.90;;;;;;5158850;27;19969;-47
2023/06/19 13:33:57;;;;;;;;;;;24.20;99.90;;;;;;5158914;27;19919;-48
2023/06/19 13:36:23;;;;;;;;;;;24.20;99.90;;;;;;5158798;27;19925;-47
2023/06/19 13:38:49;;;;;;;;;;;24.10;99.90;;;;;;5158680;27;20305;-47
2023/06/19 13:41:14;;;;;;;;;;;24.10;99.90;;;;;;5158601;27;19927;-46
2023/06/19 13:43:40;;;;;;;;;;;24.10;99.90;;;;;;5158606;27;20320;-46
2023/06/19 13:46:06;;;;;;;;;;;24.20;99.90;;;;;;5158639;27;19962;-48
2023/06/19 13:48:32;;;;;;;;;;;24.30;99.90;;;;;;5158594;27;19919;-46
2023/06/19 13:50:59;;;;;;;;;;;24.40;99.90;;;;;;5158472;27;19919;-50
2023/06/19 13:53:25;;;;;;;;;;;24.50;99.90;;;;;;5158443;27;19923;-48
2023/06/19 13:55:50;;;;;;;;;;;24.50;99.90;;;;;;5158241;27;19926;-46
2023/06/19 13:58:16;;;;;;;;;;;24.50;99.90;;;;;;5140377;27;19919;-48
2023/06/19 14:00:41;;;;;;;;;;;24.50;99.90;;;;;;5158883;27;19919;-49
2023/06/19 14:03:07;;;;;;;;;;;24.50;99.90;;;;;;5158236;27;20297;-46
2023/06/19 14:05:33;;;;;;;;;;;24.60;99.90;;;;;;5158188;27;19919;-50
2023/06/19 14:07:58;;;;;;;;;;;24.70;99.90;;;;;;5139930;27;19981;-49
2023/06/19 14:10:24;;;;;;;;;;;24.80;99.90;;;;;;5158101;27;19919;-49